sensor_id;sensor_type;location;lat;lon;timestamp;P1;durP1;ratioP1;P2;durP2;ratioP2
45548;SDS011;31270;48.328;10.096;2022-09-27T00:01:37;2.80;;;2.07;;
45548;SDS011;31270;48.328;10.096;2022-09-27T00:04:03;2.10;;;1.90;;
45548;SDS011;31270;48.328;10.096;2022-09-27T00:06:29;2.70;;;1.97;;
45548;SDS011;31270;48.328;10.096;2022-09-27T00:08:57;3.73;;;2.10;;
45548;SDS011;31270;48.328;10.096;2022-09-27T00:11:24;2.67;;;1.87;;
45548;SDS011;31270;48.328;10.096;2022-09-27T00:13:53;3.47;;;2.00;;
45548;SDS011;31270;48.328;10.096;2022-09-27T00:16:20;4.77;;;2.27;;
45548;SDS011;31270;48.328;10.096;2022-09-27T00:18:46;3.07;;;2.17;;
45548;SDS011;31270;48.328;10.096;2022-09-27T00:21:12;5.03;;;2.10;;
45548;SDS011;31270;48.328;10.096;2022-09-27T00:23:39;3.07;;;2.27;;
45548;SDS011;31270;48.328;10.096;2022-09-27T00:26:05;2.97;;;2.03;;
45548;SDS011;31270;48.328;10.096;2022-09-27T00:28:32;4.53;;;2.50;;
45548;SDS011;31270;48.328;10.096;2022-09-27T00:30:58;2.37;;;2.17;;
45548;SDS011;31270;48.328;10.096;2022-09-27T00:33:25;3.00;;;2.10;;
45548;SDS011;31270;48.328;10.096;2022-09-27T00:35:51;2.87;;;2.10;;
45548;SDS011;31270;48.328;10.096;2022-09-27T00:38:17;4.50;;;2.10;;
45548;SDS011;31270;48.328;10.096;2022-09-27T00:40:42;2.60;;;2.17;;
45548;SDS011;31270;48.328;10.096;2022-09-27T00:43:14;2.87;;;2.13;;
45548;SDS011;31270;48.328;10.096;2022-09-27T00:45:54;3.47;;;2.07;;
45548;SDS011;31270;48.328;10.096;2022-09-27T00:48:28;4.10;;;2.07;;
45548;SDS011;31270;48.328;10.096;2022-09-27T00:50:58;3.70;;;2.00;;
45548;SDS011;31270;48.328;10.096;2022-09-27T00:53:30;2.67;;;2.10;;
45548;SDS011;31270;48.328;10.096;2022-09-27T00:56:14;1.67;;;1.57;;
45548;SDS011;31270;48.328;10.096;2022-09-27T00:58:49;2.40;;;1.60;;
45548;SDS011;31270;48.328;10.096;2022-09-27T01:01:22;6.67;;;1.60;;
45548;SDS011;31270;48.328;10.096;2022-09-27T01:04:10;2.50;;;1.60;;
45548;SDS011;31270;48.328;10.096;2022-09-27T01:06:35;3.90;;;1.90;;
45548;SDS011;31270;48.328;10.096;2022-09-27T01:09:03;2.60;;;1.20;;
45548;SDS011;31270;48.328;10.096;2022-09-27T01:11:34;1.70;;;1.57;;
45548;SDS011;31270;48.328;10.096;2022-09-27T01:14:43;1.63;;;1.33;;
45548;SDS011;31270;48.328;10.096;2022-09-27T01:17:38;3.00;;;1.40;;
45548;SDS011;31270;48.328;10.096;2022-09-27T01:25:40;3.33;;;1.60;;
45548;SDS011;31270;48.328;10.096;2022-09-27T01:40:29;2.37;;;1.90;;
45548;SDS011;31270;48.328;10.096;2022-09-27T01:45:35;5.20;;;1.70;;
45548;SDS011;31270;48.328;10.096;2022-09-27T01:48:13;1.70;;;1.53;;
45548;SDS011;31270;48.328;10.096;2022-09-27T01:50:54;1.70;;;1.60;;
45548;SDS011;31270;48.328;10.096;2022-09-27T01:53:26;1.70;;;1.60;;
45548;SDS011;31270;48.328;10.096;2022-09-27T01:55:57;2.07;;;1.63;;
45548;SDS011;31270;48.328;10.096;2022-09-27T01:58:28;2.17;;;1.97;;
45548;SDS011;31270;48.328;10.096;2022-09-27T02:01:05;2.17;;;1.87;;
45548;SDS011;31270;48.328;10.096;2022-09-27T02:03:34;3.63;;;2.00;;
45548;SDS011;31270;48.328;10.096;2022-09-27T02:06:08;2.43;;;1.77;;
45548;SDS011;31270;48.328;10.096;2022-09-27T02:08:48;2.13;;;1.90;;
45548;SDS011;31270;48.328;10.096;2022-09-27T02:11:21;4.83;;;1.67;;
45548;SDS011;31270;48.328;10.096;2022-09-27T02:13:49;3.43;;;1.73;;
45548;SDS011;31270;48.328;10.096;2022-09-27T02:16:28;3.27;;;2.10;;
45548;SDS011;31270;48.328;10.096;2022-09-27T02:19:09;2.87;;;2.13;;
45548;SDS011;31270;48.328;10.096;2022-09-27T02:24:26;2.60;;;2.00;;
45548;SDS011;31270;48.328;10.096;2022-09-27T02:27:19;1.90;;;1.80;;
45548;SDS011;31270;48.328;10.096;2022-09-27T02:30:11;2.23;;;2.03;;
45548;SDS011;31270;48.328;10.096;2022-09-27T02:32:38;1.97;;;1.77;;
45548;SDS011;31270;48.328;10.096;2022-09-27T02:35:10;2.50;;;2.10;;
45548;SDS011;31270;48.328;10.096;2022-09-27T02:37:37;3.23;;;2.07;;
45548;SDS011;31270;48.328;10.096;2022-09-27T02:40:03;2.23;;;1.80;;
45548;SDS011;31270;48.328;10.096;2022-09-27T02:42:29;2.33;;;1.70;;
45548;SDS011;31270;48.328;10.096;2022-09-27T02:44:56;3.43;;;1.97;;
45548;SDS011;31270;48.328;10.096;2022-09-27T02:48:06;1.80;;;1.70;;
45548;SDS011;31270;48.328;10.096;2022-09-27T02:56:04;2.40;;;2.10;;
45548;SDS011;31270;48.328;10.096;2022-09-27T02:58:42;4.03;;;2.10;;
45548;SDS011;31270;48.328;10.096;2022-09-27T03:01:11;2.30;;;2.10;;
45548;SDS011;31270;48.328;10.096;2022-09-27T03:03:57;1.80;;;1.67;;
45548;SDS011;31270;48.328;10.096;2022-09-27T03:06:24;2.37;;;2.03;;
45548;SDS011;31270;48.328;10.096;2022-09-27T03:08:51;1.87;;;1.77;;
45548;SDS011;31270;48.328;10.096;2022-09-27T03:11:16;3.43;;;1.70;;
45548;SDS011;31270;48.328;10.096;2022-09-27T03:13:43;2.30;;;2.10;;
45548;SDS011;31270;48.328;10.096;2022-09-27T03:16:09;2.80;;;1.90;;
45548;SDS011;31270;48.328;10.096;2022-09-27T03:18:35;2.50;;;1.93;;
45548;SDS011;31270;48.328;10.096;2022-09-27T03:21:01;2.77;;;1.90;;
45548;SDS011;31270;48.328;10.096;2022-09-27T03:23:27;2.97;;;2.00;;
45548;SDS011;31270;48.328;10.096;2022-09-27T03:25:52;2.27;;;1.67;;
45548;SDS011;31270;48.328;10.096;2022-09-27T03:28:18;2.40;;;1.63;;
45548;SDS011;31270;48.328;10.096;2022-09-27T03:30:44;2.03;;;1.70;;
45548;SDS011;31270;48.328;10.096;2022-09-27T03:33:11;1.93;;;1.83;;
45548;SDS011;31270;48.328;10.096;2022-09-27T03:35:37;1.90;;;1.73;;
45548;SDS011;31270;48.328;10.096;2022-09-27T03:38:03;1.90;;;1.70;;
45548;SDS011;31270;48.328;10.096;2022-09-27T03:40:29;2.70;;;1.97;;
45548;SDS011;31270;48.328;10.096;2022-09-27T03:42:54;1.93;;;1.70;;
45548;SDS011;31270;48.328;10.096;2022-09-27T03:45:20;2.33;;;1.70;;
45548;SDS011;31270;48.328;10.096;2022-09-27T03:47:46;2.13;;;1.83;;
45548;SDS011;31270;48.328;10.096;2022-09-27T03:50:12;1.43;;;1.33;;
45548;SDS011;31270;48.328;10.096;2022-09-27T03:52:38;2.83;;;1.20;;
45548;SDS011;31270;48.328;10.096;2022-09-27T03:55:04;1.13;;;1.03;;
45548;SDS011;31270;48.328;10.096;2022-09-27T03:57:30;1.47;;;1.30;;
45548;SDS011;31270;48.328;10.096;2022-09-27T03:59:56;1.50;;;1.20;;
45548;SDS011;31270;48.328;10.096;2022-09-27T04:02:23;1.10;;;1.00;;
45548;SDS011;31270;48.328;10.096;2022-09-27T04:04:50;1.33;;;1.03;;
45548;SDS011;31270;48.328;10.096;2022-09-27T04:07:15;1.07;;;0.97;;
45548;SDS011;31270;48.328;10.096;2022-09-27T04:09:42;1.33;;;1.20;;
45548;SDS011;31270;48.328;10.096;2022-09-27T04:12:08;2.07;;;1.50;;
45548;SDS011;31270;48.328;10.096;2022-09-27T04:14:34;1.40;;;1.30;;
45548;SDS011;31270;48.328;10.096;2022-09-27T04:17:00;1.33;;;1.23;;
45548;SDS011;31270;48.328;10.096;2022-09-27T04:19:26;2.63;;;1.30;;
45548;SDS011;31270;48.328;10.096;2022-09-27T04:21:51;1.10;;;1.00;;
45548;SDS011;31270;48.328;10.096;2022-09-27T04:24:17;2.13;;;1.30;;
45548;SDS011;31270;48.328;10.096;2022-09-27T04:26:43;1.90;;;1.00;;
45548;SDS011;31270;48.328;10.096;2022-09-27T04:29:09;1.63;;;1.20;;
45548;SDS011;31270;48.328;10.096;2022-09-27T04:31:35;1.30;;;1.20;;
45548;SDS011;31270;48.328;10.096;2022-09-27T04:34:02;1.40;;;1.30;;
45548;SDS011;31270;48.328;10.096;2022-09-27T04:36:29;1.20;;;1.10;;
45548;SDS011;31270;48.328;10.096;2022-09-27T04:39:04;1.57;;;1.20;;
45548;SDS011;31270;48.328;10.096;2022-09-27T04:41:31;2.60;;;1.20;;
45548;SDS011;31270;48.328;10.096;2022-09-27T04:43:58;6.30;;;1.30;;
45548;SDS011;31270;48.328;10.096;2022-09-27T04:46:25;3.23;;;1.37;;
45548;SDS011;31270;48.328;10.096;2022-09-27T04:48:55;5.40;;;1.50;;
45548;SDS011;31270;48.328;10.096;2022-09-27T04:51:22;1.53;;;1.33;;
45548;SDS011;31270;48.328;10.096;2022-09-27T04:53:47;2.37;;;1.20;;
45548;SDS011;31270;48.328;10.096;2022-09-27T04:56:13;3.60;;;1.60;;
45548;SDS011;31270;48.328;10.096;2022-09-27T04:58:40;1.53;;;1.30;;
45548;SDS011;31270;48.328;10.096;2022-09-27T05:01:06;1.30;;;1.20;;
45548;SDS011;31270;48.328;10.096;2022-09-27T05:03:33;1.97;;;1.53;;
45548;SDS011;31270;48.328;10.096;2022-09-27T05:05:59;1.93;;;1.50;;
45548;SDS011;31270;48.328;10.096;2022-09-27T05:08:25;2.47;;;1.30;;
45548;SDS011;31270;48.328;10.096;2022-09-27T05:10:51;1.90;;;1.40;;
45548;SDS011;31270;48.328;10.096;2022-09-27T05:13:17;1.63;;;1.40;;
45548;SDS011;31270;48.328;10.096;2022-09-27T05:15:43;1.40;;;1.27;;
45548;SDS011;31270;48.328;10.096;2022-09-27T05:18:08;2.63;;;1.60;;
45548;SDS011;31270;48.328;10.096;2022-09-27T05:20:34;3.57;;;1.50;;
45548;SDS011;31270;48.328;10.096;2022-09-27T05:23:01;2.13;;;1.67;;
45548;SDS011;31270;48.328;10.096;2022-09-27T05:25:28;2.50;;;1.60;;
45548;SDS011;31270;48.328;10.096;2022-09-27T05:27:56;2.97;;;1.70;;
45548;SDS011;31270;48.328;10.096;2022-09-27T05:30:22;2.23;;;1.50;;
45548;SDS011;31270;48.328;10.096;2022-09-27T05:32:48;3.33;;;1.77;;
45548;SDS011;31270;48.328;10.096;2022-09-27T05:35:14;2.10;;;1.40;;
45548;SDS011;31270;48.328;10.096;2022-09-27T05:37:42;1.90;;;1.70;;
45548;SDS011;31270;48.328;10.096;2022-09-27T05:40:14;2.70;;;1.70;;
45548;SDS011;31270;48.328;10.096;2022-09-27T05:42:40;2.93;;;2.00;;
45548;SDS011;31270;48.328;10.096;2022-09-27T05:45:06;2.30;;;2.07;;
45548;SDS011;31270;48.328;10.096;2022-09-27T05:47:31;5.90;;;2.47;;
45548;SDS011;31270;48.328;10.096;2022-09-27T05:49:57;4.53;;;2.00;;
45548;SDS011;31270;48.328;10.096;2022-09-27T05:52:23;2.23;;;1.90;;
45548;SDS011;31270;48.328;10.096;2022-09-27T05:54:49;2.53;;;2.00;;
45548;SDS011;31270;48.328;10.096;2022-09-27T05:57:14;4.10;;;2.23;;
45548;SDS011;31270;48.328;10.096;2022-09-27T05:59:40;2.73;;;2.07;;
45548;SDS011;31270;48.328;10.096;2022-09-27T06:02:05;2.53;;;1.87;;
45548;SDS011;31270;48.328;10.096;2022-09-27T06:04:33;3.63;;;2.00;;
45548;SDS011;31270;48.328;10.096;2022-09-27T06:06:58;3.00;;;1.93;;
45548;SDS011;31270;48.328;10.096;2022-09-27T06:09:24;3.17;;;1.77;;
45548;SDS011;31270;48.328;10.096;2022-09-27T06:11:52;4.70;;;2.40;;
45548;SDS011;31270;48.328;10.096;2022-09-27T06:14:17;3.17;;;2.03;;
45548;SDS011;31270;48.328;10.096;2022-09-27T06:16:43;3.57;;;1.97;;
45548;SDS011;31270;48.328;10.096;2022-09-27T06:19:09;5.93;;;1.77;;
45548;SDS011;31270;48.328;10.096;2022-09-27T06:21:35;4.57;;;2.20;;
45548;SDS011;31270;48.328;10.096;2022-09-27T06:24:01;5.90;;;2.43;;
45548;SDS011;31270;48.328;10.096;2022-09-27T06:26:27;2.90;;;2.13;;
45548;SDS011;31270;48.328;10.096;2022-09-27T06:28:53;6.60;;;2.13;;
45548;SDS011;31270;48.328;10.096;2022-09-27T06:31:19;2.00;;;1.77;;
45548;SDS011;31270;48.328;10.096;2022-09-27T06:33:45;2.20;;;1.50;;
45548;SDS011;31270;48.328;10.096;2022-09-27T06:36:11;2.80;;;1.47;;
45548;SDS011;31270;48.328;10.096;2022-09-27T06:38:37;1.50;;;1.27;;
45548;SDS011;31270;48.328;10.096;2022-09-27T06:41:03;1.70;;;1.10;;
45548;SDS011;31270;48.328;10.096;2022-09-27T06:43:30;1.40;;;1.10;;
45548;SDS011;31270;48.328;10.096;2022-09-27T06:46:01;1.10;;;0.90;;
45548;SDS011;31270;48.328;10.096;2022-09-27T06:48:31;1.77;;;1.20;;
45548;SDS011;31270;48.328;10.096;2022-09-27T06:50:57;1.40;;;1.20;;
45548;SDS011;31270;48.328;10.096;2022-09-27T06:53:23;3.00;;;1.20;;
45548;SDS011;31270;48.328;10.096;2022-09-27T06:58:37;4.17;;;1.10;;
45548;SDS011;31270;48.328;10.096;2022-09-27T07:01:25;1.57;;;1.20;;
45548;SDS011;31270;48.328;10.096;2022-09-27T07:03:52;1.80;;;1.27;;
45548;SDS011;31270;48.328;10.096;2022-09-27T07:06:19;2.57;;;1.47;;
45548;SDS011;31270;48.328;10.096;2022-09-27T07:08:52;3.07;;;1.20;;
45548;SDS011;31270;48.328;10.096;2022-09-27T07:11:19;1.73;;;1.10;;
45548;SDS011;31270;48.328;10.096;2022-09-27T07:13:47;2.83;;;1.00;;
45548;SDS011;31270;48.328;10.096;2022-09-27T07:16:13;2.57;;;1.17;;
45548;SDS011;31270;48.328;10.096;2022-09-27T07:18:40;1.90;;;1.20;;
45548;SDS011;31270;48.328;10.096;2022-09-27T07:21:06;3.10;;;1.50;;
45548;SDS011;31270;48.328;10.096;2022-09-27T07:23:32;1.83;;;1.33;;
45548;SDS011;31270;48.328;10.096;2022-09-27T07:25:59;1.40;;;1.30;;
45548;SDS011;31270;48.328;10.096;2022-09-27T07:28:28;3.40;;;1.40;;
45548;SDS011;31270;48.328;10.096;2022-09-27T07:30:54;2.43;;;1.70;;
45548;SDS011;31270;48.328;10.096;2022-09-27T07:33:20;1.93;;;1.30;;
45548;SDS011;31270;48.328;10.096;2022-09-27T07:35:46;3.07;;;1.30;;
45548;SDS011;31270;48.328;10.096;2022-09-27T07:38:12;1.77;;;1.23;;
45548;SDS011;31270;48.328;10.096;2022-09-27T07:40:38;3.30;;;1.50;;
45548;SDS011;31270;48.328;10.096;2022-09-27T07:43:05;3.40;;;1.13;;
45548;SDS011;31270;48.328;10.096;2022-09-27T07:45:33;1.80;;;1.40;;
45548;SDS011;31270;48.328;10.096;2022-09-27T07:47:59;1.50;;;1.30;;
45548;SDS011;31270;48.328;10.096;2022-09-27T07:50:27;1.13;;;1.03;;
45548;SDS011;31270;48.328;10.096;2022-09-27T07:52:54;1.47;;;1.30;;
45548;SDS011;31270;48.328;10.096;2022-09-27T07:55:20;2.50;;;1.40;;
45548;SDS011;31270;48.328;10.096;2022-09-27T07:57:48;2.57;;;1.50;;
45548;SDS011;31270;48.328;10.096;2022-09-27T08:00:14;2.60;;;1.47;;
45548;SDS011;31270;48.328;10.096;2022-09-27T08:02:41;1.47;;;1.30;;
45548;SDS011;31270;48.328;10.096;2022-09-27T08:05:08;1.97;;;1.10;;
45548;SDS011;31270;48.328;10.096;2022-09-27T08:07:35;1.20;;;1.10;;
45548;SDS011;31270;48.328;10.096;2022-09-27T08:10:03;1.50;;;1.33;;
45548;SDS011;31270;48.328;10.096;2022-09-27T08:12:30;1.37;;;1.17;;
45548;SDS011;31270;48.328;10.096;2022-09-27T08:14:55;3.10;;;1.53;;
45548;SDS011;31270;48.328;10.096;2022-09-27T08:17:25;2.00;;;1.43;;
45548;SDS011;31270;48.328;10.096;2022-09-27T08:19:54;1.13;;;1.07;;
45548;SDS011;31270;48.328;10.096;2022-09-27T08:22:20;1.70;;;0.93;;
45548;SDS011;31270;48.328;10.096;2022-09-27T08:24:46;1.63;;;1.07;;
45548;SDS011;31270;48.328;10.096;2022-09-27T08:27:13;2.70;;;1.13;;
45548;SDS011;31270;48.328;10.096;2022-09-27T08:29:39;1.63;;;1.00;;
45548;SDS011;31270;48.328;10.096;2022-09-27T08:32:09;0.80;;;0.80;;
45548;SDS011;31270;48.328;10.096;2022-09-27T08:34:35;1.00;;;0.80;;
45548;SDS011;31270;48.328;10.096;2022-09-27T08:37:01;1.03;;;0.93;;
45548;SDS011;31270;48.328;10.096;2022-09-27T08:39:27;1.67;;;0.90;;
45548;SDS011;31270;48.328;10.096;2022-09-27T08:42:09;1.53;;;1.00;;
45548;SDS011;31270;48.328;10.096;2022-09-27T08:47:58;1.13;;;0.70;;
45548;SDS011;31270;48.328;10.096;2022-09-27T08:50:30;2.10;;;0.80;;
45548;SDS011;31270;48.328;10.096;2022-09-27T08:53:13;3.10;;;0.83;;
45548;SDS011;31270;48.328;10.096;2022-09-27T08:55:53;0.93;;;0.80;;
45548;SDS011;31270;48.328;10.096;2022-09-27T09:00:55;1.73;;;0.80;;
45548;SDS011;31270;48.328;10.096;2022-09-27T09:03:23;0.90;;;0.80;;
45548;SDS011;31270;48.328;10.096;2022-09-27T09:06:07;2.60;;;0.90;;
45548;SDS011;31270;48.328;10.096;2022-09-27T09:14:47;1.57;;;1.33;;
45548;SDS011;31270;48.328;10.096;2022-09-27T09:17:56;1.63;;;0.90;;
45548;SDS011;31270;48.328;10.096;2022-09-27T09:28:41;1.03;;;0.80;;
45548;SDS011;31270;48.328;10.096;2022-09-27T09:31:36;1.77;;;0.90;;
45548;SDS011;31270;48.328;10.096;2022-09-27T09:34:25;1.20;;;0.87;;
45548;SDS011;31270;48.328;10.096;2022-09-27T09:36:58;1.00;;;0.90;;
45548;SDS011;31270;48.328;10.096;2022-09-27T09:39:56;1.10;;;0.93;;
45548;SDS011;31270;48.328;10.096;2022-09-27T09:42:28;1.83;;;0.90;;
45548;SDS011;31270;48.328;10.096;2022-09-27T09:45:04;4.47;;;1.00;;
45548;SDS011;31270;48.328;10.096;2022-09-27T09:47:44;2.27;;;1.00;;
45548;SDS011;31270;48.328;10.096;2022-09-27T09:50:19;2.53;;;1.10;;
45548;SDS011;31270;48.328;10.096;2022-09-27T09:52:49;1.60;;;1.33;;
45548;SDS011;31270;48.328;10.096;2022-09-27T09:55:20;1.43;;;1.30;;
45548;SDS011;31270;48.328;10.096;2022-09-27T09:57:51;1.20;;;1.10;;
45548;SDS011;31270;48.328;10.096;2022-09-27T10:00:39;1.30;;;1.00;;
45548;SDS011;31270;48.328;10.096;2022-09-27T10:03:05;3.53;;;1.00;;
45548;SDS011;31270;48.328;10.096;2022-09-27T10:05:32;2.10;;;1.30;;
45548;SDS011;31270;48.328;10.096;2022-09-27T10:08:00;1.17;;;1.00;;
45548;SDS011;31270;48.328;10.096;2022-09-27T10:10:28;1.90;;;1.10;;
45548;SDS011;31270;48.328;10.096;2022-09-27T10:12:55;1.10;;;1.07;;
45548;SDS011;31270;48.328;10.096;2022-09-27T10:15:22;1.23;;;1.13;;
45548;SDS011;31270;48.328;10.096;2022-09-27T10:17:51;1.50;;;1.30;;
45548;SDS011;31270;48.328;10.096;2022-09-27T10:25:51;2.10;;;1.33;;
45548;SDS011;31270;48.328;10.096;2022-09-27T10:28:28;1.70;;;1.60;;
45548;SDS011;31270;48.328;10.096;2022-09-27T10:30:58;1.60;;;1.50;;
45548;SDS011;31270;48.328;10.096;2022-09-27T10:33:26;1.47;;;1.30;;
45548;SDS011;31270;48.328;10.096;2022-09-27T10:35:54;2.87;;;1.60;;
45548;SDS011;31270;48.328;10.096;2022-09-27T10:38:27;2.63;;;1.50;;
45548;SDS011;31270;48.328;10.096;2022-09-27T10:41:14;3.97;;;1.80;;
45548;SDS011;31270;48.328;10.096;2022-09-27T10:46:44;5.03;;;1.70;;
45548;SDS011;31270;48.328;10.096;2022-09-27T10:51:43;1.93;;;1.30;;
45548;SDS011;31270;48.328;10.096;2022-09-27T10:57:01;1.00;;;1.00;;
45548;SDS011;31270;48.328;10.096;2022-09-27T10:59:30;3.57;;;0.93;;
45548;SDS011;31270;48.328;10.096;2022-09-27T11:01:59;3.03;;;1.00;;
45548;SDS011;31270;48.328;10.096;2022-09-27T11:04:32;1.00;;;0.90;;
45548;SDS011;31270;48.328;10.096;2022-09-27T11:07:07;1.10;;;1.07;;
45548;SDS011;31270;48.328;10.096;2022-09-27T11:09:55;1.43;;;1.10;;
45548;SDS011;31270;48.328;10.096;2022-09-27T11:12:27;1.80;;;1.30;;
45548;SDS011;31270;48.328;10.096;2022-09-27T11:14:55;1.40;;;1.30;;
45548;SDS011;31270;48.328;10.096;2022-09-27T11:17:25;2.53;;;1.20;;
45548;SDS011;31270;48.328;10.096;2022-09-27T11:19:57;2.20;;;1.40;;
45548;SDS011;31270;48.328;10.096;2022-09-27T11:22:47;1.70;;;1.30;;
45548;SDS011;31270;48.328;10.096;2022-09-27T11:30:52;1.30;;;1.20;;
45548;SDS011;31270;48.328;10.096;2022-09-27T11:45:01;1.30;;;1.20;;
45548;SDS011;31270;48.328;10.096;2022-09-27T11:58:55;1.30;;;1.20;;
45548;SDS011;31270;48.328;10.096;2022-09-27T12:02:08;1.30;;;1.20;;
45548;SDS011;31270;48.328;10.096;2022-09-27T12:10:43;1.57;;;1.00;;
45548;SDS011;31270;48.328;10.096;2022-09-27T12:13:13;1.03;;;0.90;;
45548;SDS011;31270;48.328;10.096;2022-09-27T12:15:42;2.77;;;1.20;;
45548;SDS011;31270;48.328;10.096;2022-09-27T12:18:13;1.15;;;1.05;;
45548;SDS011;31270;48.328;10.096;2022-09-27T12:20:48;1.58;;;1.00;;
45548;SDS011;31270;48.328;10.096;2022-09-27T12:23:17;1.20;;;1.00;;
45548;SDS011;31270;48.328;10.096;2022-09-27T12:25:49;0.80;;;0.60;;
45548;SDS011;31270;48.328;10.096;2022-09-27T12:28:34;1.67;;;0.90;;
45548;SDS011;31270;48.328;10.096;2022-09-27T12:31:34;1.65;;;0.80;;
45548;SDS011;31270;48.328;10.096;2022-09-27T12:34:13;1.30;;;0.95;;
45548;SDS011;31270;48.328;10.096;2022-09-27T12:36:55;1.90;;;1.13;;
45548;SDS011;31270;48.328;10.096;2022-09-27T12:39:25;0.80;;;0.80;;
45548;SDS011;31270;48.328;10.096;2022-09-27T12:42:01;1.47;;;1.10;;
45548;SDS011;31270;48.328;10.096;2022-09-27T12:44:35;1.90;;;1.00;;
45548;SDS011;31270;48.328;10.096;2022-09-27T12:52:35;2.42;;;1.08;;
45548;SDS011;31270;48.328;10.096;2022-09-27T13:00:58;1.23;;;0.80;;
45548;SDS011;31270;48.328;10.096;2022-09-27T13:06:09;4.47;;;1.07;;
45548;SDS011;31270;48.328;10.096;2022-09-27T13:08:52;0.93;;;0.80;;
45548;SDS011;31270;48.328;10.096;2022-09-27T13:11:52;0.70;;;0.70;;
45548;SDS011;31270;48.328;10.096;2022-09-27T13:14:41;2.37;;;1.20;;
45548;SDS011;31270;48.328;10.096;2022-09-27T13:17:46;2.63;;;1.00;;
45548;SDS011;31270;48.328;10.096;2022-09-27T13:25:51;2.47;;;0.90;;
45548;SDS011;31270;48.328;10.096;2022-09-27T13:31:14;1.50;;;1.20;;
45548;SDS011;31270;48.328;10.096;2022-09-27T13:38:52;1.20;;;1.03;;
45548;SDS011;31270;48.328;10.096;2022-09-27T13:41:19;1.53;;;1.07;;
45548;SDS011;31270;48.328;10.096;2022-09-27T13:43:48;5.77;;;1.13;;
45548;SDS011;31270;48.328;10.096;2022-09-27T13:46:23;1.00;;;1.00;;
45548;SDS011;31270;48.328;10.096;2022-09-27T13:48:54;1.83;;;1.40;;
45548;SDS011;31270;48.328;10.096;2022-09-27T13:51:27;2.10;;;1.27;;
45548;SDS011;31270;48.328;10.096;2022-09-27T13:54:01;1.27;;;1.10;;
45548;SDS011;31270;48.328;10.096;2022-09-27T13:59:10;1.63;;;1.03;;
45548;SDS011;31270;48.328;10.096;2022-09-27T14:01:58;2.90;;;1.00;;
45548;SDS011;31270;48.328;10.096;2022-09-27T14:04:40;1.30;;;1.20;;
45548;SDS011;31270;48.328;10.096;2022-09-27T14:07:17;1.97;;;1.20;;
45548;SDS011;31270;48.328;10.096;2022-09-27T14:09:46;1.80;;;1.03;;
45548;SDS011;31270;48.328;10.096;2022-09-27T14:12:17;2.13;;;1.07;;
45548;SDS011;31270;48.328;10.096;2022-09-27T14:14:45;1.53;;;1.13;;
45548;SDS011;31270;48.328;10.096;2022-09-27T14:17:13;2.10;;;0.80;;
45548;SDS011;31270;48.328;10.096;2022-09-27T14:19:40;2.43;;;1.40;;
45548;SDS011;31270;48.328;10.096;2022-09-27T14:22:14;1.80;;;1.00;;
45548;SDS011;31270;48.328;10.096;2022-09-27T14:24:44;2.90;;;1.40;;
45548;SDS011;31270;48.328;10.096;2022-09-27T14:27:27;1.27;;;1.13;;
45548;SDS011;31270;48.328;10.096;2022-09-27T14:29:55;1.43;;;1.10;;
45548;SDS011;31270;48.328;10.096;2022-09-27T14:32:28;2.10;;;1.30;;
45548;SDS011;31270;48.328;10.096;2022-09-27T14:35:06;3.37;;;1.27;;
45548;SDS011;31270;48.328;10.096;2022-09-27T14:38:01;2.43;;;1.03;;
45548;SDS011;31270;48.328;10.096;2022-09-27T14:43:18;1.57;;;1.10;;
45548;SDS011;31270;48.328;10.096;2022-09-27T14:45:45;1.73;;;1.10;;
45548;SDS011;31270;48.328;10.096;2022-09-27T14:48:22;1.53;;;1.20;;
45548;SDS011;31270;48.328;10.096;2022-09-27T14:51:00;1.33;;;1.20;;
45548;SDS011;31270;48.328;10.096;2022-09-27T14:53:39;1.77;;;1.17;;
45548;SDS011;31270;48.328;10.096;2022-09-27T14:56:05;1.43;;;1.20;;
45548;SDS011;31270;48.328;10.096;2022-09-27T14:58:33;1.23;;;1.10;;
45548;SDS011;31270;48.328;10.096;2022-09-27T15:00:59;1.90;;;1.20;;
45548;SDS011;31270;48.328;10.096;2022-09-27T15:03:26;2.53;;;1.17;;
45548;SDS011;31270;48.328;10.096;2022-09-27T15:05:59;1.70;;;1.03;;
45548;SDS011;31270;48.328;10.096;2022-09-27T15:08:29;1.03;;;1.00;;
45548;SDS011;31270;48.328;10.096;2022-09-27T15:10:57;2.20;;;1.10;;
45548;SDS011;31270;48.328;10.096;2022-09-27T15:13:23;2.50;;;1.20;;
45548;SDS011;31270;48.328;10.096;2022-09-27T15:15:50;1.67;;;1.10;;
45548;SDS011;31270;48.328;10.096;2022-09-27T15:20:52;1.63;;;1.13;;
45548;SDS011;31270;48.328;10.096;2022-09-27T15:23:28;1.30;;;1.20;;
45548;SDS011;31270;48.328;10.096;2022-09-27T15:26:03;1.27;;;0.97;;
45548;SDS011;31270;48.328;10.096;2022-09-27T15:28:34;1.83;;;1.10;;
45548;SDS011;31270;48.328;10.096;2022-09-27T15:31:03;2.07;;;1.10;;
45548;SDS011;31270;48.328;10.096;2022-09-27T15:33:31;1.40;;;1.10;;
45548;SDS011;31270;48.328;10.096;2022-09-27T15:35:59;1.67;;;1.40;;
45548;SDS011;31270;48.328;10.096;2022-09-27T15:38:40;4.47;;;1.50;;
45548;SDS011;31270;48.328;10.096;2022-09-27T15:51:46;1.83;;;1.30;;
45548;SDS011;31270;48.328;10.096;2022-09-27T15:54:16;1.73;;;1.03;;
45548;SDS011;31270;48.328;10.096;2022-09-27T15:56:49;2.70;;;1.23;;
45548;SDS011;31270;48.328;10.096;2022-09-27T16:01:46;2.40;;;1.03;;
45548;SDS011;31270;48.328;10.096;2022-09-27T16:04:12;1.47;;;1.37;;
45548;SDS011;31270;48.328;10.096;2022-09-27T16:06:38;3.53;;;1.87;;
45548;SDS011;31270;48.328;10.096;2022-09-27T16:09:08;2.23;;;1.90;;
45548;SDS011;31270;48.328;10.096;2022-09-27T16:11:40;3.63;;;1.77;;
45548;SDS011;31270;48.328;10.096;2022-09-27T16:14:06;1.80;;;1.40;;
45548;SDS011;31270;48.328;10.096;2022-09-27T16:16:31;1.60;;;1.20;;
45548;SDS011;31270;48.328;10.096;2022-09-27T16:18:58;2.10;;;1.30;;
45548;SDS011;31270;48.328;10.096;2022-09-27T16:21:23;1.67;;;1.20;;
45548;SDS011;31270;48.328;10.096;2022-09-27T16:23:49;1.37;;;1.27;;
45548;SDS011;31270;48.328;10.096;2022-09-27T16:26:14;2.80;;;1.40;;
45548;SDS011;31270;48.328;10.096;2022-09-27T16:28:40;2.73;;;1.70;;
45548;SDS011;31270;48.328;10.096;2022-09-27T16:31:06;1.60;;;1.50;;
45548;SDS011;31270;48.328;10.096;2022-09-27T16:33:32;3.20;;;1.80;;
45548;SDS011;31270;48.328;10.096;2022-09-27T16:35:58;2.40;;;1.77;;
45548;SDS011;31270;48.328;10.096;2022-09-27T16:38:27;1.67;;;1.40;;
45548;SDS011;31270;48.328;10.096;2022-09-27T16:40:58;3.47;;;1.60;;
45548;SDS011;31270;48.328;10.096;2022-09-27T16:43:25;2.00;;;1.80;;
45548;SDS011;31270;48.328;10.096;2022-09-27T16:45:51;1.90;;;1.60;;
45548;SDS011;31270;48.328;10.096;2022-09-27T16:48:17;1.90;;;1.50;;
45548;SDS011;31270;48.328;10.096;2022-09-27T16:50:42;4.40;;;2.00;;
45548;SDS011;31270;48.328;10.096;2022-09-27T16:53:26;2.30;;;1.73;;
45548;SDS011;31270;48.328;10.096;2022-09-27T16:55:52;2.03;;;1.50;;
45548;SDS011;31270;48.328;10.096;2022-09-27T16:58:22;1.77;;;1.60;;
45548;SDS011;31270;48.328;10.096;2022-09-27T17:00:48;2.87;;;2.10;;
45548;SDS011;31270;48.328;10.096;2022-09-27T17:03:13;4.90;;;2.93;;
45548;SDS011;31270;48.328;10.096;2022-09-27T17:05:39;4.30;;;3.00;;
45548;SDS011;31270;48.328;10.096;2022-09-27T17:08:04;4.90;;;2.70;;
45548;SDS011;31270;48.328;10.096;2022-09-27T17:10:30;2.40;;;1.93;;
45548;SDS011;31270;48.328;10.096;2022-09-27T17:12:55;2.87;;;2.03;;
45548;SDS011;31270;48.328;10.096;2022-09-27T17:15:22;2.83;;;1.50;;
45548;SDS011;31270;48.328;10.096;2022-09-27T17:17:48;2.43;;;1.67;;
45548;SDS011;31270;48.328;10.096;2022-09-27T17:20:14;3.23;;;1.77;;
45548;SDS011;31270;48.328;10.096;2022-09-27T17:22:40;1.60;;;1.37;;